Time;durP1;ratioP1;P1;durP2;ratioP2;P2;SDS_P1;SDS_P2;PMS_P1;PMS_P2;Temp;Humidity;BMP_temperature;BMP_pressure;BME280_temperature;BME280_humidity;BME280_pressure;Samples;Min_cycle;Max_cycle;Signal;HPM_P1;HPM_P2
2022/10/31 00:00:08;;;;;;;2.90;1.05;;;;;;;;;;5055808;28;20024;-68
2022/10/31 00:02:34;;;;;;;1.52;0.60;;;;;;;;;;5058664;28;20017;-68
2022/10/31 00:05:01;;;;;;;1.40;0.80;;;;;;;;;;5058465;28;20442;-68
2022/10/31 00:07:28;;;;;;;2.40;1.15;;;;;;;;;;5058504;28;20025;-68
2022/10/31 00:09:54;;;;;;;3.05;1.20;;;;;;;;;;5058281;28;20487;-68
2022/10/31 00:12:21;;;;;;;2.42;1.30;;;;;;;;;;5053664;28;20025;-68
2022/10/31 00:14:48;;;;;;;1.40;1.08;;;;;;;;;;5053411;28;20421;-68
2022/10/31 00:17:14;;;;;;;2.23;1.17;;;;;;;;;;5053687;28;20029;-67
2022/10/31 00:19:41;;;;;;;1.80;1.08;;;;;;;;;;5053499;28;20052;-67
2022/10/31 00:22:08;;;;;;;3.67;1.40;;;;;;;;;;5058098;28;20078;-67
2022/10/31 00:24:34;;;;;;;10.03;1.63;;;;;;;;;;5058144;28;20029;-67
2022/10/31 00:27:01;;;;;;;6.53;1.37;;;;;;;;;;5058166;28;20429;-67
2022/10/31 00:29:28;;;;;;;1.43;0.57;;;;;;;;;;5058279;28;20036;-66
2022/10/31 00:31:54;;;;;;;3.03;1.33;;;;;;;;;;5058398;28;20029;-66
2022/10/31 00:34:21;;;;;;;2.07;1.20;;;;;;;;;;5054273;28;20099;-67
2022/10/31 00:36:47;;;;;;;1.80;0.97;;;;;;;;;;5052718;28;20021;-67
2022/10/31 00:39:14;;;;;;;4.97;1.27;;;;;;;;;;5053007;28;20029;-68
2022/10/31 00:41:41;;;;;;;2.47;1.23;;;;;;;;;;5053302;28;20033;-67
2022/10/31 00:44:08;;;;;;;1.23;0.87;;;;;;;;;;5056503;28;20531;-67
2022/10/31 00:46:34;;;;;;;3.87;1.20;;;;;;;;;;5057953;28;20025;-66
2022/10/31 00:49:01;;;;;;;2.93;1.40;;;;;;;;;;5058199;28;20021;-67
2022/10/31 00:51:28;;;;;;;3.03;1.13;;;;;;;;;;5058398;28;20160;-66
2022/10/31 00:53:54;;;;;;;4.03;2.13;;;;;;;;;;5057710;28;20025;-66
2022/10/31 00:56:21;;;;;;;1.63;1.17;;;;;;;;;;5055007;28;20036;-66
2022/10/31 00:58:48;;;;;;;4.13;1.20;;;;;;;;;;5051617;28;20033;-66
2022/10/31 01:01:14;;;;;;;1.47;1.00;;;;;;;;;;5053617;28;20090;-66
2022/10/31 01:03:41;;;;;;;0.70;0.70;;;;;;;;;;5053127;28;20357;-66
2022/10/31 01:06:09;;;;;;;3.10;1.60;;;;;;;;;;5055450;28;20499;-68
2022/10/31 01:08:36;;;;;;;1.90;1.10;;;;;;;;;;5058482;28;20063;-67
2022/10/31 01:11:03;;;;;;;2.13;0.97;;;;;;;;;;5056163;28;20029;-67
2022/10/31 01:13:30;;;;;;;3.90;2.13;;;;;;;;;;5055299;28;20083;-66
2022/10/31 01:15:57;;;;;;;1.87;1.10;;;;;;;;;;5055045;28;20040;-66
2022/10/31 01:18:24;;;;;;;1.77;1.00;;;;;;;;;;5051584;28;20036;-67
2022/10/31 01:21:01;;;;;;;9.37;1.50;;;;;;;;;;5049860;28;20090;-66
2022/10/31 01:23:28;;;;;;;1.27;0.80;;;;;;;;;;5049579;28;20052;-67
2022/10/31 01:26:27;;;;;;;4.40;1.87;;;;;;;;;;5048783;28;20025;-66
2022/10/31 01:28:54;;;;;;;7.13;2.97;;;;;;;;;;5019319;28;20037;-65
2022/10/31 01:31:22;;;;;;;3.40;2.37;;;;;;;;;;5054712;28;20013;-66
2022/10/31 01:33:49;;;;;;;4.17;2.30;;;;;;;;;;5054756;28;20053;-66
2022/10/31 01:36:23;;;;;;;3.90;2.40;;;;;;;;;;5054714;28;20094;-66
2022/10/31 01:38:50;;;;;;;2.35;1.05;;;;;;;;;;5054328;28;20073;-66
2022/10/31 01:41:22;;;;;;;4.30;1.77;;;;;;;;;;5051127;28;20049;-65
2022/10/31 01:43:55;;;;;;;6.27;2.30;;;;;;;;;;5049574;28;20036;-67
2022/10/31 01:46:25;;;;;;;2.93;1.37;;;;;;;;;;5049591;28;20205;-66
2022/10/31 01:48:53;;;;;;;5.57;2.27;;;;;;;;;;5049435;28;20785;-65
2022/10/31 01:51:21;;;;;;;3.93;1.47;;;;;;;;;;5052397;28;20025;-66
2022/10/31 01:53:48;;;;;;;5.40;1.77;;;;;;;;;;5053958;28;20029;-65
2022/10/31 01:56:16;;;;;;;7.47;2.33;;;;;;;;;;5053029;28;20029;-65
2022/10/31 01:58:43;;;;;;;6.23;2.07;;;;;;;;;;5053216;28;20040;-65
2022/10/31 02:01:11;;;;;;;4.10;1.30;;;;;;;;;;5053259;28;20380;-66
2022/10/31 02:03:37;;;;;;;15.10;1.63;;;;;;;;;;5045622;28;20021;-65
2022/10/31 02:06:07;;;;;;;3.10;1.60;;;;;;;;;;5048419;28;20025;-66
2022/10/31 02:08:35;;;;;;;1.77;1.00;;;;;;;;;;5048458;28;20096;-65
2022/10/31 02:11:02;;;;;;;2.10;1.30;;;;;;;;;;5047784;28;20084;-65
2022/10/31 02:13:29;;;;;;;1.43;0.90;;;;;;;;;;5051009;28;20037;-67
2022/10/31 02:16:00;;;;;;;1.60;0.90;;;;;;;;;;5053732;28;20086;-66
2022/10/31 02:18:28;;;;;;;2.73;1.27;;;;;;;;;;5054184;28;20094;-65
2022/10/31 02:20:59;;;;;;;22.67;2.37;;;;;;;;;;5053481;28;20040;-71
2022/10/31 02:23:25;;;;;;;6.47;2.97;;;;;;;;;;5052413;28;20013;-70
2022/10/31 02:26:02;;;;;;;3.77;1.47;;;;;;;;;;5049724;28;20031;-68
2022/10/31 02:28:47;;;;;;;2.47;1.70;;;;;;;;;;5047466;28;20524;-68
2022/10/31 02:31:23;;;;;;;1.92;1.10;;;;;;;;;;5048428;28;20021;-69
2022/10/31 02:33:54;;;;;;;2.90;1.53;;;;;;;;;;5047268;28;20021;-66
2022/10/31 02:36:24;;;;;;;2.00;1.17;;;;;;;;;;5052102;28;20029;-65
2022/10/31 02:39:13;;;;;;;5.03;2.00;;;;;;;;;;5053149;28;20036;-66
2022/10/31 02:41:53;;;;;;;2.37;1.50;;;;;;;;;;5053664;28;20459;-65
2022/10/31 02:44:40;;;;;;;2.93;1.87;;;;;;;;;;5053388;28;20017;-65
2022/10/31 02:47:12;;;;;;;3.27;1.30;;;;;;;;;;5052698;28;20017;-65
2022/10/31 02:49:42;;;;;;;3.97;1.93;;;;;;;;;;5048378;28;20021;-67
2022/10/31 02:52:29;;;;;;;2.13;1.47;;;;;;;;;;5042558;28;20036;-65
2022/10/31 02:54:55;;;;;;;2.50;1.10;;;;;;;;;;5046479;28;20028;-70
2022/10/31 02:57:48;;;;;;;2.03;1.30;;;;;;;;;;5048817;28;20104;-70
2022/10/31 03:00:15;;;;;;;1.83;1.27;;;;;;;;;;5051100;28;20041;-71
2022/10/31 03:02:52;;;;;;;2.27;1.37;;;;;;;;;;5053257;28;20371;-66
2022/10/31 03:05:24;;;;;;;3.93;1.67;;;;;;;;;;5052836;28;20023;-71
2022/10/31 03:08:09;;;;;;;7.23;2.10;;;;;;;;;;5052213;28;20051;-68
2022/10/31 03:10:40;;;;;;;18.40;1.95;;;;;;;;;;5050008;28;20025;-67
2022/10/31 03:13:24;;;;;;;4.20;1.77;;;;;;;;;;5047795;28;21393;-68
2022/10/31 03:15:52;;;;;;;2.37;1.80;;;;;;;;;;5046655;28;20380;-70
2022/10/31 03:18:24;;;;;;;10.57;2.37;;;;;;;;;;5047734;28;20036;-66
2022/10/31 03:20:55;;;;;;;19.73;3.07;;;;;;;;;;5051015;28;20029;-69
2022/10/31 03:23:23;;;;;;;2.67;1.73;;;;;;;;;;5051710;28;20036;-68
2022/10/31 03:25:49;;;;;;;7.27;2.33;;;;;;;;;;5052566;28;20460;-69
2022/10/31 03:28:18;;;;;;;2.70;2.00;;;;;;;;;;5052223;28;20096;-70
2022/10/31 03:30:46;;;;;;;3.40;1.97;;;;;;;;;;5052566;28;20103;-65
2022/10/31 03:33:17;;;;;;;2.77;1.73;;;;;;;;;;5049195;28;20094;-65
2022/10/31 03:35:45;;;;;;;2.67;1.63;;;;;;;;;;5047210;28;20028;-66
2022/10/31 03:38:12;;;;;;;3.70;2.00;;;;;;;;;;5047264;28;20071;-66
2022/10/31 03:40:41;;;;;;;2.33;0.97;;;;;;;;;;5047607;28;20024;-65
2022/10/31 03:43:11;;;;;;;3.40;1.87;;;;;;;;;;5049807;28;20017;-66
2022/10/31 03:45:42;;;;;;;3.37;2.03;;;;;;;;;;5052126;28;20020;-65
2022/10/31 03:48:09;;;;;;;3.90;2.30;;;;;;;;;;5052443;28;20021;-65
2022/10/31 03:51:10;;;;;;;2.90;1.87;;;;;;;;;;5052332;28;20431;-66
2022/10/31 03:53:37;;;;;;;3.77;2.20;;;;;;;;;;4972746;28;20050;-65
2022/10/31 03:56:12;;;;;;;3.57;1.23;;;;;;;;;;5032811;28;20072;-65
2022/10/31 03:58:43;;;;;;;1.87;1.30;;;;;;;;;;5047291;28;20063;-66
2022/10/31 04:01:13;;;;;;;3.10;2.17;;;;;;;;;;5033690;28;20025;-65
2022/10/31 04:03:40;;;;;;;1.37;0.97;;;;;;;;;;5027170;28;20029;-66
2022/10/31 04:06:09;;;;;;;3.80;1.67;;;;;;;;;;5031092;28;20026;-66
2022/10/31 04:08:40;;;;;;;8.67;1.97;;;;;;;;;;5032452;28;20064;-65
2022/10/31 04:11:08;;;;;;;2.00;1.20;;;;;;;;;;5032335;28;20026;-65
2022/10/31 04:13:36;;;;;;;2.80;1.47;;;;;;;;;;5032242;28;20380;-65
2022/10/31 04:16:02;;;;;;;1.97;1.30;;;;;;;;;;5051779;28;20032;-65
2022/10/31 04:18:29;;;;;;;1.70;1.23;;;;;;;;;;5046265;28;20392;-65
2022/10/31 04:21:05;;;;;;;1.30;1.13;;;;;;;;;;5046794;28;20033;-65
2022/10/31 04:23:32;;;;;;;4.70;1.83;;;;;;;;;;5047060;28;20029;-65
2022/10/31 04:25:59;;;;;;;2.77;1.60;;;;;;;;;;5046486;28;20013;-65
2022/10/31 04:28:25;;;;;;;3.40;2.03;;;;;;;;;;5050633;28;20488;-65
2022/10/31 04:30:52;;;;;;;1.63;1.10;;;;;;;;;;5052067;28;20088;-65
2022/10/31 04:33:19;;;;;;;3.37;1.60;;;;;;;;;;5051483;28;20025;-66
2022/10/31 04:35:46;;;;;;;1.93;1.23;;;;;;;;;;5051936;28;20476;-65
2022/10/31 04:38:13;;;;;;;3.13;1.83;;;;;;;;;;5051358;28;20379;-64
2022/10/31 04:40:39;;;;;;;2.50;1.93;;;;;;;;;;5048007;28;20066;-64
2022/10/31 04:43:06;;;;;;;3.07;1.60;;;;;;;;;;5046560;28;20025;-64
2022/10/31 04:45:33;;;;;;;13.57;2.20;;;;;;;;;;5046788;28;20401;-64
2022/10/31 04:48:00;;;;;;;3.97;2.23;;;;;;;;;;5050455;28;20028;-66
2022/10/31 04:50:26;;;;;;;4.23;2.57;;;;;;;;;;5053617;28;20032;-64
2022/10/31 04:52:53;;;;;;;2.63;1.73;;;;;;;;;;5055476;28;20025;-65
2022/10/31 04:55:20;;;;;;;4.23;2.40;;;;;;;;;;5055146;28;20039;-63
2022/10/31 04:57:48;;;;;;;2.97;1.90;;;;;;;;;;5055066;28;20495;-63
2022/10/31 05:00:16;;;;;;;2.33;1.90;;;;;;;;;;5055433;28;20732;-63
2022/10/31 05:02:46;;;;;;;1.93;1.33;;;;;;;;;;5052215;28;20056;-64
2022/10/31 05:05:13;;;;;;;5.50;1.90;;;;;;;;;;5050281;28;20029;-64
2022/10/31 05:07:41;;;;;;;2.10;1.30;;;;;;;;;;5050082;28;20475;-64
2022/10/31 05:10:09;;;;;;;2.03;1.27;;;;;;;;;;5049820;28;20029;-65
2022/10/31 05:12:36;;;;;;;1.43;1.20;;;;;;;;;;5052620;28;20071;-68
2022/10/31 05:15:03;;;;;;;4.73;2.10;;;;;;;;;;5055370;28;20064;-66
2022/10/31 05:17:29;;;;;;;3.47;2.20;;;;;;;;;;5054953;28;20500;-67
2022/10/31 05:19:56;;;;;;;2.40;1.60;;;;;;;;;;5055142;28;20028;-68
2022/10/31 05:22:23;;;;;;;1.87;1.30;;;;;;;;;;5054965;28;20485;-65
2022/10/31 05:24:49;;;;;;;1.77;1.40;;;;;;;;;;5051403;28;20032;-65
2022/10/31 05:27:16;;;;;;;3.30;1.17;;;;;;;;;;5049947;28;20088;-66
2022/10/31 05:29:43;;;;;;;1.93;1.33;;;;;;;;;;5049704;28;20017;-65
2022/10/31 05:32:09;;;;;;;1.23;0.87;;;;;;;;;;5041615;28;20405;-64
2022/10/31 05:34:36;;;;;;;1.60;1.10;;;;;;;;;;5031413;28;20546;-63
2022/10/31 05:37:02;;;;;;;3.37;1.50;;;;;;;;;;5034728;28;20029;-63
2022/10/31 05:39:29;;;;;;;2.77;1.70;;;;;;;;;;5052032;28;20029;-63
2022/10/31 05:41:56;;;;;;;1.97;1.20;;;;;;;;;;5054601;28;20025;-63
2022/10/31 05:44:22;;;;;;;3.80;2.17;;;;;;;;;;5054534;28;20029;-63
2022/10/31 05:46:49;;;;;;;8.57;2.57;;;;;;;;;;5051762;28;20465;-63
2022/10/31 05:49:17;;;;;;;2.70;1.20;;;;;;;;;;5049106;28;20045;-63
2022/10/31 05:51:43;;;;;;;3.40;1.70;;;;;;;;;;5048875;28;20473;-63
2022/10/31 05:54:10;;;;;;;5.13;2.87;;;;;;;;;;5048790;28;20492;-64
2022/10/31 05:56:37;;;;;;;1.47;1.13;;;;;;;;;;5050081;28;20025;-63
2022/10/31 05:59:03;;;;;;;2.33;1.17;;;;;;;;;;5054098;28;20030;-63
2022/10/31 06:01:30;;;;;;;8.87;2.43;;;;;;;;;;5054183;28;20083;-63
2022/10/31 06:03:57;;;;;;;3.70;1.97;;;;;;;;;;5053739;28;20029;-63
2022/10/31 06:06:23;;;;;;;5.30;2.87;;;;;;;;;;5054122;28;20039;-63
2022/10/31 06:08:50;;;;;;;2.70;1.73;;;;;;;;;;5052173;28;20082;-63
2022/10/31 06:11:16;;;;;;;8.60;1.97;;;;;;;;;;5048703;28;20021;-63
2022/10/31 06:13:43;;;;;;;3.77;2.27;;;;;;;;;;5048630;28;20064;-63
2022/10/31 06:16:10;;;;;;;3.17;2.03;;;;;;;;;;5048758;28;20384;-63
2022/10/31 06:18:36;;;;;;;4.80;2.87;;;;;;;;;;5049190;28;20037;-63
2022/10/31 06:21:03;;;;;;;2.23;1.57;;;;;;;;;;5053295;28;20086;-63
2022/10/31 06:23:30;;;;;;;3.17;2.03;;;;;;;;;;5053714;28;20021;-63
2022/10/31 06:25:56;;;;;;;7.13;2.50;;;;;;;;;;5053237;28;20379;-64
2022/10/31 06:28:23;;;;;;;3.67;2.33;;;;;;;;;;5053870;28;20505;-63
2022/10/31 06:30:50;;;;;;;5.80;3.43;;;;;;;;;;5052626;28;20021;-63
2022/10/31 06:33:16;;;;;;;4.77;2.63;;;;;;;;;;5048277;28;20025;-63
2022/10/31 06:35:46;;;;;;;2.10;1.33;;;;;;;;;;5048141;28;20025;-63
2022/10/31 06:38:13;;;;;;;5.00;2.47;;;;;;;;;;5047839;28;20480;-63
2022/10/31 06:40:40;;;;;;;2.50;1.77;;;;;;;;;;5048000;28;20029;-63
2022/10/31 06:43:07;;;;;;;4.13;2.27;;;;;;;;;;5053325;28;20070;-63
2022/10/31 06:45:33;;;;;;;1.93;1.40;;;;;;;;;;5053405;28;20013;-63
2022/10/31 06:48:00;;;;;;;1.83;1.30;;;;;;;;;;5053256;28;20025;-63
2022/10/31 06:50:27;;;;;;;3.23;1.33;;;;;;;;;;5053337;28;20427;-63
2022/10/31 06:52:54;;;;;;;2.27;1.70;;;;;;;;;;5052508;28;20032;-63
2022/10/31 06:55:24;;;;;;;2.60;1.87;;;;;;;;;;5047298;28;20029;-64
2022/10/31 06:57:54;;;;;;;3.53;1.53;;;;;;;;;;5027836;28;20108;-63
2022/10/31 07:00:21;;;;;;;4.33;1.37;;;;;;;;;;5027689;28;20026;-63
2022/10/31 07:02:58;;;;;;;3.27;1.70;;;;;;;;;;5027743;28;20027;-63
2022/10/31 07:05:25;;;;;;;4.73;1.70;;;;;;;;;;5033088;28;20465;-63
2022/10/31 07:07:56;;;;;;;2.07;1.87;;;;;;;;;;5032457;28;20021;-63
2022/10/31 07:10:23;;;;;;;3.37;1.30;;;;;;;;;;5032428;28;20128;-63
2022/10/31 07:12:54;;;;;;;5.33;2.27;;;;;;;;;;5044563;28;20438;-63
2022/10/31 07:15:21;;;;;;;1.43;1.13;;;;;;;;;;5051877;28;20464;-63
2022/10/31 07:17:48;;;;;;;1.13;0.87;;;;;;;;;;5047551;28;20037;-63
2022/10/31 07:20:14;;;;;;;1.20;0.97;;;;;;;;;;5047480;28;20029;-63
2022/10/31 07:22:41;;;;;;;1.80;1.33;;;;;;;;;;5046890;28;20051;-63
2022/10/31 07:25:08;;;;;;;1.33;1.07;;;;;;;;;;5047318;28;20025;-63
2022/10/31 07:27:38;;;;;;;3.30;1.53;;;;;;;;;;5052147;28;20067;-63
2022/10/31 07:30:05;;;;;;;1.50;1.20;;;;;;;;;;5052485;28;20025;-63
2022/10/31 07:32:39;;;;;;;8.00;1.90;;;;;;;;;;5052470;28;20419;-63
2022/10/31 07:35:06;;;;;;;1.93;1.70;;;;;;;;;;5052406;28;20049;-62
2022/10/31 07:37:33;;;;;;;2.03;1.17;;;;;;;;;;5051492;28;20036;-62
2022/10/31 07:39:59;;;;;;;4.33;2.13;;;;;;;;;;5047249;28;20055;-63
2022/10/31 07:42:26;;;;;;;2.77;1.70;;;;;;;;;;5047101;28;20079;-63
2022/10/31 07:44:53;;;;;;;4.27;2.20;;;;;;;;;;5046823;28;20033;-63
2022/10/31 07:47:19;;;;;;;2.00;1.43;;;;;;;;;;5046778;28;20056;-63
2022/10/31 07:49:46;;;;;;;2.20;1.40;;;;;;;;;;5052084;28;20025;-62
2022/10/31 07:52:12;;;;;;;3.07;1.93;;;;;;;;;;5052161;28;20095;-62
2022/10/31 07:54:39;;;;;;;3.57;1.97;;;;;;;;;;5051855;28;20021;-63
2022/10/31 07:57:06;;;;;;;3.03;1.73;;;;;;;;;;5052221;28;20032;-62
2022/10/31 07:59:32;;;;;;;4.23;1.70;;;;;;;;;;5052068;28;20423;-63
2022/10/31 08:01:59;;;;;;;2.80;1.37;;;;;;;;;;5045958;28;20384;-63
2022/10/31 08:04:26;;;;;;;4.77;2.50;;;;;;;;;;5045933;28;20110;-62
2022/10/31 08:06:52;;;;;;;2.53;1.43;;;;;;;;;;5045767;28;20040;-64
2022/10/31 08:09:19;;;;;;;1.20;1.00;;;;;;;;;;5046356;28;20029;-63
2022/10/31 08:11:46;;;;;;;2.10;1.67;;;;;;;;;;5050680;28;20028;-63
2022/10/31 08:14:12;;;;;;;2.27;1.50;;;;;;;;;;5052228;28;20031;-62
2022/10/31 08:16:39;;;;;;;1.50;1.17;;;;;;;;;;5052014;28;20029;-63
2022/10/31 08:19:06;;;;;;;3.27;2.40;;;;;;;;;;5051977;28;20086;-62
2022/10/31 08:21:32;;;;;;;4.57;1.73;;;;;;;;;;5054481;28;20036;-63
2022/10/31 08:23:59;;;;;;;2.47;1.63;;;;;;;;;;5051391;28;20083;-62
2022/10/31 08:26:25;;;;;;;0.93;0.87;;;;;;;;;;5050601;28;20028;-62
2022/10/31 08:28:54;;;;;;;3.20;2.37;;;;;;;;;;5050529;28;20357;-62
2022/10/31 08:31:22;;;;;;;2.50;1.87;;;;;;;;;;5050663;28;20021;-63
2022/10/31 08:33:49;;;;;;;3.07;1.67;;;;;;;;;;5053949;28;20033;-62
2022/10/31 08:36:16;;;;;;;22.97;2.27;;;;;;;;;;5055914;28;20033;-62
2022/10/31 08:38:42;;;;;;;2.20;1.30;;;;;;;;;;5055562;28;20024;-62
2022/10/31 08:41:09;;;;;;;1.63;1.20;;;;;;;;;;5055698;28;20375;-63
2022/10/31 08:43:36;;;;;;;2.77;1.47;;;;;;;;;;5055636;28;20565;-62
2022/10/31 08:46:03;;;;;;;3.03;1.33;;;;;;;;;;5051453;28;20032;-62
2022/10/31 08:48:29;;;;;;;2.00;1.30;;;;;;;;;;5049690;28;20204;-63
2022/10/31 08:51:00;;;;;;;14.37;2.40;;;;;;;;;;5049608;28;20355;-62
2022/10/31 08:53:27;;;;;;;4.27;1.87;;;;;;;;;;5049654;28;20041;-62
2022/10/31 08:55:55;;;;;;;2.03;1.43;;;;;;;;;;5053186;28;20032;-62
2022/10/31 08:58:22;;;;;;;1.67;1.37;;;;;;;;;;5055312;28;20049;-62
2022/10/31 09:00:50;;;;;;;2.67;1.90;;;;;;;;;;5054894;28;20017;-62
2022/10/31 09:03:18;;;;;;;8.37;1.80;;;;;;;;;;5055433;28;20032;-62
2022/10/31 09:05:45;;;;;;;2.60;1.73;;;;;;;;;;5055058;28;20060;-62
2022/10/31 09:08:12;;;;;;;2.40;1.83;;;;;;;;;;5051618;28;20048;-62
2022/10/31 09:10:39;;;;;;;1.87;1.03;;;;;;;;;;5049984;28;20025;-63
2022/10/31 09:13:07;;;;;;;2.83;1.10;;;;;;;;;;5049641;28;20494;-62
2022/10/31 09:15:35;;;;;;;3.73;1.63;;;;;;;;;;5049438;28;20036;-62
2022/10/31 09:18:02;;;;;;;1.53;1.27;;;;;;;;;;5052497;28;20036;-63
2022/10/31 09:20:29;;;;;;;2.40;1.63;;;;;;;;;;5054724;28;20460;-62
2022/10/31 09:22:57;;;;;;;2.27;1.40;;;;;;;;;;5055047;28;20074;-62
2022/10/31 09:25:23;;;;;;;8.57;2.30;;;;;;;;;;5054588;28;20072;-62
2022/10/31 09:27:50;;;;;;;4.03;1.57;;;;;;;;;;5054853;28;20100;-62
2022/10/31 09:30:17;;;;;;;3.07;2.47;;;;;;;;;;5051486;28;20029;-62
2022/10/31 09:32:43;;;;;;;2.80;1.17;;;;;;;;;;5048441;28;20021;-63
2022/10/31 09:35:10;;;;;;;1.17;1.00;;;;;;;;;;5049281;28;20088;-62
2022/10/31 09:37:37;;;;;;;1.10;0.90;;;;;;;;;;5049267;28;20033;-62
2022/10/31 09:40:04;;;;;;;6.40;2.60;;;;;;;;;;5051420;28;20027;-62
2022/10/31 09:42:30;;;;;;;3.90;2.00;;;;;;;;;;5054225;28;20052;-62
2022/10/31 09:45:15;;;;;;;2.93;1.90;;;;;;;;;;5054317;28;20415;-62
2022/10/31 09:47:42;;;;;;;2.60;1.10;;;;;;;;;;5054800;28;20502;-62
2022/10/31 09:50:18;;;;;;;2.40;1.53;;;;;;;;;;5054571;28;20027;-62
2022/10/31 09:52:53;;;;;;;1.23;1.13;;;;;;;;;;5050502;28;20045;-63
2022/10/31 09:55:35;;;;;;;1.77;1.45;;;;;;;;;;5049128;28;20291;-62
2022/10/31 09:58:03;;;;;;;2.60;1.60;;;;;;;;;;5048982;28;20039;-62
2022/10/31 10:00:31;;;;;;;2.03;1.33;;;;;;;;;;5048882;28;20312;-62
2022/10/31 10:03:02;;;;;;;1.43;1.20;;;;;;;;;;5052289;28;20258;-62
2022/10/31 10:05:33;;;;;;;20.70;2.00;;;;;;;;;;5054174;28;20028;-62
2022/10/31 10:08:11;;;;;;;2.13;1.30;;;;;;;;;;5053693;28;20021;-62
2022/10/31 10:10:44;;;;;;;0.83;0.63;;;;;;;;;;5054167;28;20270;-62
2022/10/31 10:13:23;;;;;;;7.47;2.30;;;;;;;;;;5053937;28;20024;-62
2022/10/31 10:16:25;;;;;;;2.20;1.53;;;;;;;;;;5048643;28;20029;-62
2022/10/31 10:19:05;;;;;;;2.53;1.47;;;;;;;;;;4986675;28;20300;-62
2022/10/31 10:21:42;;;;;;;1.57;1.17;;;;;;;;;;5041947;28;20059;-62
2022/10/31 10:24:17;;;;;;;4.70;1.13;;;;;;;;;;5049373;28;20316;-62
2022/10/31 10:26:50;;;;;;;2.63;1.40;;;;;;;;;;5053840;28;20251;-62
2022/10/31 10:29:38;;;;;;;1.77;1.23;;;;;;;;;;5053691;28;20258;-62
2022/10/31 10:32:19;;;;;;;4.80;2.27;;;;;;;;;;5053534;28;20250;-62
2022/10/31 10:34:49;;;;;;;2.73;1.70;;;;;;;;;;5053618;28;20345;-62
2022/10/31 10:37:25;;;;;;;2.20;1.53;;;;;;;;;;5049844;28;20597;-63
2022/10/31 10:40:12;;;;;;;1.47;1.00;;;;;;;;;;5047770;28;20331;-62
2022/10/31 10:48:44;;;;;;;2.38;1.30;;;;;;;;;;5053153;28;20079;-61
2022/10/31 10:51:19;;;;;;;1.67;1.40;;;;;;;;;;4991647;28;20157;-62
2022/10/31 10:54:02;;;;;;;2.28;1.50;;;;;;;;;;5044643;28;20737;-62
2022/10/31 10:56:35;;;;;;;3.23;1.60;;;;;;;;;;5052861;28;20029;-62
2022/10/31 10:59:02;;;;;;;2.63;1.83;;;;;;;;;;5050728;28;20359;-62
2022/10/31 11:01:28;;;;;;;3.03;1.97;;;;;;;;;;5047530;28;20652;-62
2022/10/31 11:03:55;;;;;;;9.77;1.97;;;;;;;;;;5047358;28;20264;-62
2022/10/31 11:06:26;;;;;;;2.13;1.50;;;;;;;;;;5047500;28;20277;-62
2022/10/31 11:08:53;;;;;;;1.87;1.40;;;;;;;;;;5049058;28;20269;-62
2022/10/31 11:11:25;;;;;;;3.30;1.93;;;;;;;;;;5052708;28;20270;-62
2022/10/31 11:13:56;;;;;;;2.20;1.77;;;;;;;;;;5052867;28;20323;-62
2022/10/31 11:16:34;;;;;;;2.50;1.90;;;;;;;;;;5052192;28;20258;-62
2022/10/31 11:19:16;;;;;;;1.10;1.00;;;;;;;;;;5052781;28;20296;-61
2022/10/31 11:21:44;;;;;;;1.50;1.30;;;;;;;;;;5049465;28;20261;-62
2022/10/31 11:24:11;;;;;;;1.53;1.13;;;;;;;;;;5047496;28;20341;-62
2022/10/31 11:26:39;;;;;;;1.33;1.13;;;;;;;;;;5046974;28;20254;-62
2022/10/31 11:29:06;;;;;;;1.47;0.93;;;;;;;;;;5046764;28;20301;-62
2022/10/31 11:31:35;;;;;;;1.17;1.07;;;;;;;;;;5049655;28;20265;-62
2022/10/31 11:34:03;;;;;;;2.00;1.27;;;;;;;;;;5052428;28;20280;-62
2022/10/31 11:36:31;;;;;;;2.73;2.13;;;;;;;;;;5052524;28;20715;-61
2022/10/31 11:38:59;;;;;;;1.40;1.20;;;;;;;;;;5051975;28;20321;-63
2022/10/31 11:41:28;;;;;;;3.47;1.77;;;;;;;;;;5052237;28;20250;-62
2022/10/31 11:43:59;;;;;;;2.23;1.93;;;;;;;;;;5049386;28;20258;-62
2022/10/31 11:46:36;;;;;;;1.83;1.47;;;;;;;;;;5046869;28;21019;-62
2022/10/31 11:49:03;;;;;;;2.70;2.17;;;;;;;;;;5046660;28;20352;-62
2022/10/31 11:51:31;;;;;;;6.67;2.73;;;;;;;;;;5046827;28;20349;-62
2022/10/31 11:54:02;;;;;;;1.77;1.40;;;;;;;;;;5049115;28;20311;-62
2022/10/31 11:56:38;;;;;;;2.40;1.80;;;;;;;;;;5051963;28;20315;-62
2022/10/31 11:59:06;;;;;;;1.87;1.30;;;;;;;;;;5051918;28;20296;-62
2022/10/31 12:01:33;;;;;;;1.50;1.40;;;;;;;;;;5052167;28;20258;-61
2022/10/31 12:04:05;;;;;;;2.60;1.63;;;;;;;;;;5051964;28;20261;-62
2022/10/31 12:06:36;;;;;;;1.43;1.20;;;;;;;;;;5048429;28;20365;-62
2022/10/31 12:09:03;;;;;;;1.30;1.20;;;;;;;;;;5046753;28;20290;-62
2022/10/31 12:11:36;;;;;;;10.80;2.30;;;;;;;;;;5046424;28;20266;-62
2022/10/31 12:14:20;;;;;;;1.00;0.90;;;;;;;;;;5046824;28;20258;-63
2022/10/31 12:16:51;;;;;;;2.63;1.88;;;;;;;;;;5049948;28;20301;-61
2022/10/31 12:19:26;;;;;;;0.27;0.27;;;;;;;;;;5051842;28;20457;-61
2022/10/31 12:21:59;;;;;;;2.33;1.60;;;;;;;;;;5051818;28;20272;-61
2022/10/31 12:24:37;;;;;;;1.80;1.20;;;;;;;;;;5052026;28;20025;-62
2022/10/31 12:27:19;;;;;;;1.53;1.20;;;;;;;;;;5051121;28;20280;-62
2022/10/31 12:30:01;;;;;;;1.50;1.33;;;;;;;;;;5046752;28;20628;-61
2022/10/31 12:32:33;;;;;;;2.27;1.90;;;;;;;;;;5046038;28;20727;-61
2022/10/31 12:35:05;;;;;;;2.20;1.43;;;;;;;;;;5046356;28;21069;-62
2022/10/31 12:37:49;;;;;;;10.77;1.50;;;;;;;;;;5046476;28;20282;-61
2022/10/31 12:40:34;;;;;;;3.93;1.57;;;;;;;;;;5051869;28;20356;-62
2022/10/31 12:43:03;;;;;;;3.28;2.25;;;;;;;;;;5051609;28;20317;-62
2022/10/31 12:45:39;;;;;;;2.17;1.70;;;;;;;;;;5051453;28;20032;-62
2022/10/31 12:48:12;;;;;;;3.27;2.33;;;;;;;;;;5051724;28;20277;-61
2022/10/31 12:51:02;;;;;;;4.37;2.67;;;;;;;;;;5049049;28;20262;-62
2022/10/31 12:53:37;;;;;;;1.87;1.47;;;;;;;;;;5046150;28;20316;-61
2022/10/31 12:56:07;;;;;;;1.38;1.13;;;;;;;;;;5046304;28;20276;-62
2022/10/31 12:58:43;;;;;;;2.17;1.67;;;;;;;;;;5046197;28;20039;-62
2022/10/31 13:01:17;;;;;;;1.00;0.90;;;;;;;;;;5048950;28;20270;-62
2022/10/31 13:04:19;;;;;;;5.07;1.42;;;;;;;;;;5051477;28;20266;-62
2022/10/31 13:06:54;;;;;;;1.73;1.20;;;;;;;;;;4990444;28;20030;-62
2022/10/31 13:09:24;;;;;;;1.47;1.17;;;;;;;;;;5047038;28;20818;-62
2022/10/31 13:12:03;;;;;;;2.10;1.83;;;;;;;;;;5054965;28;20254;-62
2022/10/31 13:14:41;;;;;;;2.50;2.13;;;;;;;;;;5049771;28;20254;-63
2022/10/31 13:17:14;;;;;;;2.00;1.63;;;;;;;;;;5048727;28;20353;-63
2022/10/31 13:19:42;;;;;;;2.40;2.20;;;;;;;;;;5049771;28;20261;-62
2022/10/31 13:22:21;;;;;;;2.63;2.00;;;;;;;;;;5050069;28;20301;-62
2022/10/31 13:25:08;;;;;;;2.57;2.07;;;;;;;;;;5054541;28;20261;-64
2022/10/31 13:27:42;;;;;;;3.50;2.87;;;;;;;;;;5056262;28;20368;-69
2022/10/31 13:30:18;;;;;;;3.30;2.35;;;;;;;;;;5072965;28;20736;-69
2022/10/31 13:32:51;;;;;;;6.07;2.33;;;;;;;;;;5054956;28;20028;-67
2022/10/31 13:35:24;;;;;;;6.37;3.40;;;;;;;;;;5052045;28;20176;-68
2022/10/31 13:37:55;;;;;;;3.87;2.47;;;;;;;;;;5049722;28;20029;-64
2022/10/31 13:40:37;;;;;;;4.20;2.97;;;;;;;;;;5049498;28;20025;-67
2022/10/31 13:43:15;;;;;;;3.87;2.17;;;;;;;;;;5049534;28;20446;-67
2022/10/31 13:45:52;;;;;;;6.30;3.17;;;;;;;;;;5051425;28;20471;-68
2022/10/31 13:48:21;;;;;;;4.73;3.00;;;;;;;;;;5054596;28;20100;-68
2022/10/31 13:50:59;;;;;;;2.37;1.77;;;;;;;;;;5054441;28;20025;-70
2022/10/31 13:53:44;;;;;;;3.60;2.23;;;;;;;;;;5054399;28;20029;-68
2022/10/31 13:56:10;;;;;;;3.13;2.23;;;;;;;;;;5054468;28;20033;-68
2022/10/31 13:58:37;;;;;;;3.83;1.80;;;;;;;;;;5048921;28;20036;-68
2022/10/31 14:01:16;;;;;;;3.97;2.93;;;;;;;;;;5049312;28;20021;-68
2022/10/31 14:03:44;;;;;;;3.43;2.33;;;;;;;;;;5049142;28;20029;-69
2022/10/31 14:06:11;;;;;;;5.27;2.33;;;;;;;;;;5048569;28;20071;-69
2022/10/31 14:08:42;;;;;;;7.53;2.43;;;;;;;;;;5053744;28;20474;-68
2022/10/31 14:11:09;;;;;;;3.93;1.80;;;;;;;;;;5054228;28;20013;-65
2022/10/31 14:13:41;;;;;;;4.00;2.27;;;;;;;;;;5053684;28;20071;-66
2022/10/31 14:16:20;;;;;;;3.07;2.10;;;;;;;;;;5053423;28;20020;-67
2022/10/31 14:19:03;;;;;;;3.03;2.00;;;;;;;;;;5052966;28;20028;-66
2022/10/31 14:21:31;;;;;;;3.07;1.80;;;;;;;;;;5048670;28;20031;-68
2022/10/31 14:23:58;;;;;;;5.63;3.07;;;;;;;;;;5049060;28;20025;-68
2022/10/31 14:26:28;;;;;;;4.93;2.90;;;;;;;;;;5048830;28;20017;-69
2022/10/31 14:28:59;;;;;;;3.97;2.67;;;;;;;;;;5048650;28;20036;-66
2022/10/31 14:31:31;;;;;;;5.47;3.73;;;;;;;;;;5053880;28;20511;-67
2022/10/31 14:34:02;;;;;;;3.20;2.23;;;;;;;;;;5053726;28;20014;-68
2022/10/31 14:36:49;;;;;;;4.40;2.93;;;;;;;;;;5053665;28;20021;-67
2022/10/31 14:39:18;;;;;;;7.07;3.03;;;;;;;;;;5053053;28;20123;-67
2022/10/31 14:42:01;;;;;;;8.40;4.13;;;;;;;;;;5051784;28;20059;-69
2022/10/31 14:44:28;;;;;;;2.97;2.10;;;;;;;;;;5048237;28;20028;-67
2022/10/31 14:46:54;;;;;;;2.83;2.10;;;;;;;;;;5048522;28;20055;-67
2022/10/31 14:49:24;;;;;;;5.57;3.00;;;;;;;;;;5048637;28;20024;-68
2022/10/31 14:51:52;;;;;;;6.07;3.43;;;;;;;;;;5048842;28;20025;-68
2022/10/31 14:54:33;;;;;;;9.10;4.17;;;;;;;;;;5052787;28;20035;-67
2022/10/31 14:57:05;;;;;;;14.03;4.37;;;;;;;;;;5053150;28;20025;-67
2022/10/31 14:59:34;;;;;;;8.27;4.00;;;;;;;;;;5053273;28;20029;-68
2022/10/31 15:02:02;;;;;;;8.37;4.53;;;;;;;;;;5053146;28;20392;-69
2022/10/31 15:04:32;;;;;;;7.90;3.20;;;;;;;;;;5050685;28;20108;-67
2022/10/31 15:07:01;;;;;;;6.23;3.70;;;;;;;;;;5047873;28;20024;-67